Time;durP1;ratioP1;P1;durP2;ratioP2;P2;SDS_P1;SDS_P2;PMS_P1;PMS_P2;Temp;Humidity;BMP_temperature;BMP_pressure;BME280_temperature;BME280_humidity;BME280_pressure;Samples;Min_cycle;Max_cycle;Signal;HPM_P1;HPM_P2
2022/05/16 00:00:54;;;;;;;;;;;;;;;11.38;100.00;98870.56;6248297;22;20358;-62
2022/05/16 00:03:38;;;;;;;2.97;0.98;;;;;;;11.22;100.00;98849.97;6281664;22;19969;-61
2022/05/16 00:06:23;;;;;;;3.10;1.10;;;;;;;11.33;100.00;98872.53;6270939;22;20068;-63
2022/05/16 00:09:08;;;;;;;1.10;0.85;;;;;;;11.33;100.00;98864.56;6281788;22;20114;-62
2022/05/16 00:11:52;;;;;;;2.58;1.15;;;;;;;11.29;100.00;98849.69;6279301;22;20468;-61
2022/05/16 00:14:38;;;;;;;2.20;1.00;;;;;;;11.38;100.00;98849.34;6281691;22;20110;-63
2022/05/16 00:17:23;;;;;;;3.33;0.93;;;;;;;11.37;100.00;98863.53;6270299;22;20031;-64
2022/05/16 00:20:09;;;;;;;1.00;0.88;;;;;;;11.46;100.00;98875.56;6248546;22;20027;-62
2022/05/16 00:22:54;;;;;;;2.25;0.80;;;;;;;11.44;100.00;98862.34;6282836;22;20041;-62
2022/05/16 00:25:38;;;;;;;4.13;1.00;;;;;;;11.50;100.00;98872.75;6271933;22;20030;-66
2022/05/16 00:28:23;;;;;;;1.23;0.90;;;;;;;11.50;100.00;98874.53;6250214;22;20025;-62
2022/05/16 00:31:07;;;;;;;1.30;0.73;;;;;;;11.35;100.00;98843.28;6271065;22;20030;-62
2022/05/16 00:33:51;;;;;;;2.30;0.80;;;;;;;11.38;100.00;98862.59;6283846;22;20047;-61
2022/05/16 00:36:36;;;;;;;3.13;0.90;;;;;;;11.27;100.00;98850.69;6258854;22;20077;-61
2022/05/16 00:39:21;;;;;;;2.95;1.20;;;;;;;11.38;100.00;98875.00;6282967;22;20026;-62
2022/05/16 00:42:10;;;;;;;1.50;1.00;;;;;;;11.44;100.00;98888.06;6282937;22;20027;-62
2022/05/16 00:44:56;;;;;;;1.08;0.70;;;;;;;11.42;100.00;98881.94;6281548;22;20026;-67
2022/05/16 00:47:40;;;;;;;3.72;0.95;;;;;;;11.31;100.00;98876.19;6283202;22;20471;-60
2022/05/16 00:50:27;;;;;;;1.38;0.80;;;;;;;11.28;100.00;98870.97;6247807;22;20034;-63
2022/05/16 00:53:12;;;;;;;1.13;0.82;;;;;;;11.46;100.00;98895.03;6283214;22;20042;-62
2022/05/16 00:55:57;;;;;;;4.35;0.95;;;;;;;11.37;100.00;98874.16;6250600;22;20030;-62
2022/05/16 00:58:42;;;;;;;2.33;0.77;;;;;;;11.37;100.00;98883.91;6283297;22;20086;-61
2022/05/16 01:04:48;;;;;;;1.98;0.73;;;;;;;11.32;100.00;98886.72;6282974;22;20127;-62
2022/05/16 01:07:37;;;;;;;2.05;0.80;;;;;;;11.28;100.00;98882.44;6270494;22;20117;-63
2022/05/16 01:10:22;;;;;;;2.80;0.75;;;;;;;11.18;100.00;98875.75;6272532;22;20372;-62
2022/05/16 01:13:07;;;;;;;3.53;0.80;;;;;;;11.21;100.00;98885.38;6273050;22;20460;-63
2022/05/16 01:15:52;;;;;;;2.42;1.00;;;;;;;11.21;100.00;98890.69;6284075;22;20112;-67
2022/05/16 01:18:38;;;;;;;3.70;0.80;;;;;;;11.18;100.00;98890.78;6230651;22;20041;-63
2022/05/16 01:21:22;;;;;;;3.30;0.80;;;;;;;11.15;100.00;98878.50;6281805;22;20360;-62
2022/05/16 01:24:11;;;;;;;1.07;0.90;;;;;;;11.13;100.00;98872.41;6272961;22;20381;-61
2022/05/16 01:26:55;;;;;;;1.70;1.00;;;;;;;11.22;100.00;98892.41;6282158;22;20034;-63
2022/05/16 01:29:39;;;;;;;1.13;0.80;;;;;;;11.27;100.00;98893.97;6282196;22;20117;-63
2022/05/16 01:32:24;;;;;;;1.05;0.75;;;;;;;11.21;100.00;98893.34;6282223;22;20360;-61
2022/05/16 01:35:09;;;;;;;1.02;0.80;;;;;;;11.16;100.00;98880.22;6280925;22;20027;-65
2022/05/16 01:41:16;;;;;;;2.05;0.90;;;;;;;11.23;100.00;98905.63;6227603;22;20027;-62
2022/05/16 01:44:02;;;;;;;2.17;0.80;;;;;;;11.01;100.00;98866.66;6248418;22;20077;-61
2022/05/16 01:46:47;;;;;;;1.65;0.98;;;;;;;11.02;100.00;98868.41;6227862;22;20030;-63
2022/05/16 01:49:31;;;;;;;3.10;0.77;;;;;;;11.11;100.00;98879.53;6259383;22;20358;-61
2022/05/16 01:52:16;;;;;;;1.85;0.75;;;;;;;10.95;100.00;98848.34;6270674;22;20030;-67
2022/05/16 01:55:00;;;;;;;1.70;0.90;;;;;;;11.14;100.00;98895.34;6271925;22;20449;-61
2022/05/16 01:57:45;;;;;;;2.38;0.80;;;;;;;11.12;100.00;98893.69;6204099;22;20073;-61
2022/05/16 02:00:31;;;;;;;2.03;0.80;;;;;;;11.32;100.00;98917.72;6271752;22;20043;-61
2022/05/16 02:03:15;;;;;;;2.75;0.73;;;;;;;11.34;100.00;98919.38;6258669;22;20034;-63
2022/05/16 02:05:59;;;;;;;1.70;0.90;;;;;;;11.22;100.00;98905.69;6271571;22;20074;-62
2022/05/16 02:08:47;;;;;;;3.10;0.75;;;;;;;11.39;100.00;98925.38;6269666;22;20026;-63
2022/05/16 02:11:31;;;;;;;2.17;0.82;;;;;;;11.24;100.00;98901.19;6255188;22;20405;-63
2022/05/16 02:14:16;;;;;;;1.02;0.73;;;;;;;11.20;100.00;98907.53;6269069;22;20026;-63
2022/05/16 02:17:00;;;;;;;1.90;0.82;;;;;;;11.14;100.00;98907.75;6266929;22;20403;-63
2022/05/16 02:19:45;;;;;;;2.53;1.00;;;;;;;11.21;100.00;98918.09;6279303;22;20085;-63
2022/05/16 02:25:36;;;;;;;2.38;0.88;;;;;;;11.07;100.00;98916.88;6276691;22;20050;-61
2022/05/16 02:28:21;;;;;;;1.65;0.80;;;;;;;11.09;100.00;98902.63;6268890;22;20030;-62
2022/05/16 02:31:06;;;;;;;3.00;1.10;;;;;;;11.15;100.00;98915.66;6278998;22;20042;-63
2022/05/16 02:33:50;;;;;;;0.82;0.70;;;;;;;11.21;100.00;98920.75;6245477;22;20080;-62
2022/05/16 02:36:34;;;;;;;4.15;0.75;;;;;;;11.19;100.00;98919.09;6278956;22;20052;-66
2022/05/16 02:39:19;;;;;;;2.95;1.10;;;;;;;11.00;100.00;98897.63;6245947;22;20026;-74
2022/05/16 02:42:04;;;;;;;1.25;0.90;;;;;;;11.03;100.00;98886.06;6281623;22;20046;-62
2022/05/16 02:44:52;;;;;;;1.33;1.00;;;;;;;10.96;100.00;98884.53;6255366;22;20483;-63
2022/05/16 02:47:37;;;;;;;3.10;1.15;;;;;;;11.06;100.00;98916.00;6271110;22;20026;-62
2022/05/16 02:50:23;;;;;;;2.15;0.90;;;;;;;11.18;100.00;98931.47;6258687;22;20077;-62
2022/05/16 02:53:08;;;;;;;2.22;0.90;;;;;;;11.11;100.00;98927.28;6231716;22;20038;-61
2022/05/16 02:55:52;;;;;;;1.88;0.90;;;;;;;11.14;100.00;98929.84;6248305;22;20054;-62
2022/05/16 02:58:36;;;;;;;3.53;0.90;;;;;;;10.98;100.00;98925.13;6268939;22;20082;-69
2022/05/16 03:01:21;;;;;;;1.77;1.20;;;;;;;10.92;100.00;98922.69;6281506;22;20365;-60
2022/05/16 03:04:05;;;;;;;1.85;0.93;;;;;;;10.97;100.00;98944.63;6279312;22;20077;-63
2022/05/16 03:06:50;;;;;;;1.67;0.90;;;;;;;10.86;100.00;98928.22;6271260;22;20111;-63
2022/05/16 03:09:35;;;;;;;3.63;0.82;;;;;;;10.91;100.00;98943.03;6281448;22;20022;-62
2022/05/16 03:12:19;;;;;;;1.60;0.93;;;;;;;10.95;100.00;98955.28;6280067;22;20082;-64
2022/05/16 03:15:04;;;;;;;2.45;1.00;;;;;;;11.02;100.00;98958.59;6279341;22;20567;-62
2022/05/16 03:17:49;;;;;;;2.97;0.70;;;;;;;10.98;100.00;98952.53;6201701;22;20072;-68
2022/05/16 03:20:34;;;;;;;1.38;0.70;;;;;;;10.99;100.00;98970.16;6278828;22;20510;-62
2022/05/16 03:23:18;;;;;;;3.15;0.88;;;;;;;10.96;100.00;98958.81;6243780;22;20062;-61
2022/05/16 03:26:03;;;;;;;3.38;1.00;;;;;;;10.96;100.00;98954.34;6255655;22;20026;-63
2022/05/16 03:28:47;;;;;;;1.13;0.70;;;;;;;10.93;100.00;98965.09;6246325;22;20042;-62
2022/05/16 03:31:31;;;;;;;2.22;1.08;;;;;;;10.79;100.00;98953.19;6258095;22;20099;-63
2022/05/16 03:34:16;;;;;;;3.08;1.08;;;;;;;10.86;100.00;98967.97;6258129;22;20051;-63
2022/05/16 03:37:01;;;;;;;1.05;0.80;;;;;;;10.89;100.00;98957.28;6247270;22;20030;-67
2022/05/16 03:42:49;;;;;;;7.57;1.00;;;;;;;10.91;100.00;98968.72;6272500;22;20073;-62
2022/05/16 03:45:33;;;;;;;2.10;0.90;;;;;;;10.90;100.00;98954.59;6249434;22;20030;-65
2022/05/16 03:48:18;;;;;;;1.10;0.85;;;;;;;11.12;100.00;98966.16;6252524;22;20366;-63
2022/05/16 03:51:05;;;;;;;2.30;0.82;;;;;;;11.14;100.00;98966.13;6272549;22;20034;-68
2022/05/16 03:53:49;;;;;;;1.20;0.80;;;;;;;11.25;100.00;98959.53;6248047;22;20027;-66
2022/05/16 03:56:34;;;;;;;1.67;0.65;;;;;;;11.30;100.00;98954.03;6247300;22;20233;-65
2022/05/16 03:59:19;;;;;;;4.20;0.77;;;;;;;11.29;100.00;98965.56;6225722;22;20039;-64
2022/05/16 04:02:05;;;;;;;5.32;1.02;;;;;;;11.27;100.00;98955.00;6219335;23;20031;-66
2022/05/16 04:04:49;;;;;;;3.10;0.80;;;;;;;11.32;100.00;98965.47;6218221;23;20492;-67
2022/05/16 04:07:35;;;;;;;4.07;1.17;;;;;;;11.42;100.00;98978.34;6209205;23;20151;-67
2022/05/16 04:10:20;;;;;;;3.33;0.77;;;;;;;11.50;100.00;98973.63;6215656;23;20032;-65
2022/05/16 04:13:04;;;;;;;1.13;0.73;;;;;;;11.57;100.00;98976.94;6210001;23;20146;-62
2022/05/16 04:15:49;;;;;;;1.67;0.75;;;;;;;11.67;100.00;98989.00;6208642;23;20225;-62
2022/05/16 04:18:35;;;;;;;1.92;0.70;;;;;;;11.53;100.00;98964.69;6219468;23;20026;-64
2022/05/16 04:21:19;;;;;;;4.97;1.00;;;;;;;11.68;100.00;98974.78;6207716;23;20031;-65
2022/05/16 04:24:08;;;;;;;1.52;0.63;;;;;;;11.54;100.00;98964.66;6208448;23;20033;-80
2022/05/16 04:26:52;;;;;;;1.73;0.70;;;;;;;11.41;100.00;98958.06;6219018;23;20477;-65
2022/05/16 04:29:37;;;;;;;1.40;0.63;;;;;;;11.19;100.00;98957.06;6205462;23;20031;-64
2022/05/16 04:32:21;;;;;;;1.58;0.80;;;;;;;11.26;100.00;98971.00;6208373;23;20031;-63
2022/05/16 04:35:07;;;;;;;4.32;0.68;;;;;;;11.33;100.00;98977.81;6221487;23;20027;-62
2022/05/16 04:37:52;;;;;;;3.05;0.65;;;;;;;11.41;100.00;98984.59;6220093;23;20031;-62
2022/05/16 04:42:40;;;;;;;;;;;;;;;11.51;100.00;98983.31;6210518;23;20031;-62
2022/05/16 04:43:41;;;;;;;2.58;0.98;;;;;;;11.61;100.00;98975.94;6221657;23;19919;-62
2022/05/16 04:46:25;;;;;;;;;;;;;;;11.71;100.00;98980.00;6210305;23;20415;-62
2022/05/16 04:49:10;;;;;;;3.63;0.40;;;;;;;11.69;100.00;98973.84;6221031;23;19969;-63
2022/05/16 04:51:54;;;;;;;1.55;0.75;;;;;;;11.76;100.00;98981.56;6218109;23;20035;-71
2022/05/16 04:54:40;;;;;;;2.15;0.90;;;;;;;11.74;100.00;98972.78;6210743;23;20024;-62
2022/05/16 04:57:24;;;;;;;3.47;0.70;;;;;;;11.79;100.00;98977.91;6208593;23;20104;-63
2022/05/16 05:00:11;;;;;;;3.97;0.73;;;;;;;11.83;100.00;98976.88;6221034;23;20027;-64
2022/05/16 05:02:59;;;;;;;5.03;0.90;;;;;;;11.83;100.00;98975.06;6196860;23;20118;-65
2022/05/16 05:05:43;;;;;;;2.63;0.57;;;;;;;11.67;100.00;98955.31;6208221;23;20125;-64
2022/05/16 05:08:27;;;;;;;2.05;0.70;;;;;;;11.67;100.00;98957.13;6210633;23;20078;-64
2022/05/16 05:14:34;;;;;;;3.00;1.02;;;;;;;11.76;100.00;98955.00;6218630;23;20039;-65
2022/05/16 05:17:18;;;;;;;1.92;0.65;;;;;;;11.86;100.00;98959.03;6208381;23;20031;-64
2022/05/16 05:20:04;;;;;;;2.17;0.70;;;;;;;11.99;100.00;98964.75;6209527;23;20399;-64
2022/05/16 05:22:52;;;;;;;1.00;0.60;;;;;;;12.04;100.00;98960.13;6208718;23;20406;-68
2022/05/16 05:25:36;;;;;;;2.05;0.80;;;;;;;12.05;100.00;98967.16;6220678;23;20047;-63
2022/05/16 05:28:22;;;;;;;3.15;0.40;;;;;;;12.07;100.00;98955.53;6208413;23;20168;-64
2022/05/16 05:31:14;;;;;;;1.52;0.43;;;;;;;12.12;100.00;98963.34;6210793;23;20079;-62
2022/05/16 05:33:59;;;;;;;2.97;0.50;;;;;;;12.20;100.00;98966.56;6222532;23;20027;-63
2022/05/16 05:36:44;;;;;;;1.88;0.43;;;;;;;12.36;100.00;98943.75;6212441;23;20489;-62
2022/05/16 05:39:31;;;;;;;0.88;0.40;;;;;;;12.45;100.00;98954.03;6209210;23;20031;-62
2022/05/16 05:42:15;;;;;;;1.52;0.50;;;;;;;12.38;100.00;98963.19;6207085;23;20047;-62
2022/05/16 05:45:00;;;;;;;1.40;0.50;;;;;;;12.51;100.00;98962.59;6219603;23;20087;-63
2022/05/16 05:47:45;;;;;;;1.58;0.50;;;;;;;12.64;100.00;98958.53;6217967;23;20154;-63
2022/05/16 05:50:30;;;;;;;2.10;0.65;;;;;;;12.87;100.00;98960.25;6220790;23;20027;-63
2022/05/16 05:53:15;;;;;;;1.20;0.40;;;;;;;13.15;100.00;98948.41;6211800;23;20147;-62
2022/05/16 05:55:59;;;;;;;1.85;0.40;;;;;;;13.36;100.00;98959.88;6219463;23;20128;-67
2022/05/16 05:58:46;;;;;;;1.58;0.63;;;;;;;13.34;100.00;98953.78;6221311;23;20070;-63
2022/05/16 06:01:31;;;;;;;2.95;0.75;;;;;;;13.44;100.00;98944.44;6218246;23;20070;-62
2022/05/16 06:04:15;;;;;;;3.63;0.43;;;;;;;13.49;100.00;98934.47;6210465;23;20050;-62
2022/05/16 06:07:00;;;;;;;0.77;0.55;;;;;;;13.48;100.00;98954.03;6207434;23;20355;-64
2022/05/16 06:09:45;;;;;;;;;;;;;;;13.51;100.00;98937.91;6166222;23;20059;-65
2022/05/16 06:12:30;;;;;;;3.97;0.68;;;;;;;13.45;100.00;98951.47;6216386;23;19958;-65
2022/05/16 06:15:15;;;;;;;2.63;0.60;;;;;;;13.42;100.00;98946.31;6224275;23;20040;-70
2022/05/16 06:17:59;;;;;;;;;;;;;;;13.49;100.00;98967.28;6186424;23;20520;-63
2022/05/16 06:20:44;;;;;;;0.93;0.60;;;;;;;13.44;100.00;98944.44;6204809;23;19957;-62
2022/05/16 06:23:29;;;;;;;2.35;0.52;;;;;;;13.44;100.00;98918.69;6167191;23;20117;-63
2022/05/16 06:26:13;;;;;;;2.03;0.55;;;;;;;13.46;100.00;98958.56;6185454;23;20319;-63
2022/05/16 06:28:58;;;;;;;1.73;0.30;;;;;;;13.57;100.00;98972.28;6209896;23;20031;-63
2022/05/16 06:31:42;;;;;;;2.38;0.60;;;;;;;13.42;100.00;98933.00;6209928;23;20348;-62
2022/05/16 06:34:27;;;;;;;2.38;0.60;;;;;;;13.54;100.00;98959.94;6187471;23;20367;-61
2022/05/16 06:37:11;;;;;;;5.07;0.60;;;;;;;13.73;100.00;98965.31;6219953;23;20430;-62
2022/05/16 06:39:56;;;;;;;4.35;0.68;;;;;;;14.06;100.00;98955.78;6217606;23;20107;-68
2022/05/16 06:42:40;;;;;;;3.45;0.40;;;;;;;14.02;100.00;98947.03;6220120;23;20473;-62
2022/05/16 06:45:24;;;;;;;2.75;0.40;;;;;;;13.94;100.00;98956.34;6207126;23;20031;-62
2022/05/16 06:48:10;;;;;;;2.17;0.40;;;;;;;13.85;100.00;98962.94;6218377;23;20316;-62
2022/05/16 06:50:54;;;;;;;1.67;0.40;;;;;;;13.75;100.00;98943.00;6209859;23;20565;-63
2022/05/16 06:53:38;;;;;;;2.03;0.70;;;;;;;14.06;100.00;98970.88;6209941;23;20422;-63
2022/05/16 06:56:23;;;;;;;2.40;0.50;;;;;;;14.24;100.00;98964.75;6218322;23;20362;-62
2022/05/16 06:59:07;;;;;;;1.33;0.43;;;;;;;14.43;100.00;98962.94;6218544;23;20063;-68
2022/05/16 07:01:52;;;;;;;2.42;0.40;;;;;;;14.65;100.00;98948.47;6208412;23;20038;-63
2022/05/16 07:04:39;;;;;;;2.47;0.47;;;;;;;14.94;96.60;98960.34;6217158;23;20473;-62
2022/05/16 07:07:24;;;;;;;1.10;0.40;;;;;;;14.66;98.34;98962.66;6187003;23;20491;-64
2022/05/16 07:10:09;;;;;;;0.60;0.20;;;;;;;14.40;100.00;98929.25;6217978;23;20425;-62
2022/05/16 07:12:53;;;;;;;3.13;0.40;;;;;;;14.18;100.00;98948.97;6208461;23;20043;-63
2022/05/16 07:15:38;;;;;;;2.55;0.75;;;;;;;14.01;100.00;98957.78;6218611;23;20180;-63
2022/05/16 07:18:24;;;;;;;4.47;0.75;;;;;;;14.13;100.00;98959.00;6218504;23;20109;-66
2022/05/16 07:21:08;;;;;;;1.90;0.70;;;;;;;14.10;99.89;98961.81;6219977;23;20131;-63
2022/05/16 07:23:53;;;;;;;1.67;0.50;;;;;;;13.98;99.67;98960.59;6217352;23;20355;-63
2022/05/16 07:29:43;;;;;;;3.92;0.60;;;;;;;14.01;97.96;98943.59;6187208;23;20027;-64
2022/05/16 07:32:43;;;;;;;2.80;0.57;;;;;;;14.03;98.58;98961.22;6205816;23;20409;-65
2022/05/16 07:35:32;;;;;;;3.83;0.60;;;;;;;14.11;98.20;98955.56;6218711;23;20111;-69
2022/05/16 07:38:18;;;;;;;2.10;0.40;;;;;;;14.16;97.41;98958.88;6219630;23;20046;-63
2022/05/16 07:41:03;;;;;;;3.00;0.50;;;;;;;14.04;92.62;98951.44;6217329;23;20032;-63
2022/05/16 07:43:47;;;;;;;0.80;0.40;;;;;;;14.34;91.57;98969.56;6219428;23;20027;-63
2022/05/16 07:46:33;;;;;;;0.52;0.22;;;;;;;14.55;91.60;98952.50;6209111;23;20470;-64
2022/05/16 07:49:19;;;;;;;3.47;0.70;;;;;;;14.92;87.98;98962.22;6218063;23;20027;-64
2022/05/16 07:52:04;;;;;;;1.67;0.50;;;;;;;15.07;90.35;98974.81;6218589;23;20055;-63
2022/05/16 07:54:48;;;;;;;2.55;0.60;;;;;;;15.04;89.40;98962.50;6216075;23;20071;-63
2022/05/16 07:57:33;;;;;;;5.38;0.65;;;;;;;14.62;91.81;98967.28;6219614;23;20027;-63
2022/05/16 08:00:23;;;;;;;2.42;0.45;;;;;;;14.65;94.91;98975.16;6215769;23;20046;-63
2022/05/16 08:03:15;;;;;;;3.33;0.50;;;;;;;14.66;99.01;98997.34;6186831;23;20481;-64
2022/05/16 08:06:00;;;;;;;2.58;0.52;;;;;;;14.70;100.00;98988.25;6209861;23;20469;-66
2022/05/16 08:11:47;;;;;;;2.90;0.82;;;;;;;14.91;100.00;98993.38;6218843;23;20051;-65
2022/05/16 08:14:31;;;;;;;2.55;0.40;;;;;;;14.93;100.00;98996.00;6219775;23;20365;-65
2022/05/16 08:17:16;;;;;;;3.42;0.60;;;;;;;14.61;100.00;99018.91;6217073;23;20039;-65
2022/05/16 08:20:02;;;;;;;2.13;0.63;;;;;;;14.22;100.00;99009.25;6210199;23;20047;-64
2022/05/16 08:22:48;;;;;;;8.73;0.90;;;;;;;14.16;100.00;99026.38;6217121;23;20102;-64
2022/05/16 08:25:32;;;;;;;4.65;0.95;;;;;;;14.01;100.00;99023.56;6218061;23;20131;-65
2022/05/16 08:28:17;;;;;;;;;;;;;;;13.68;100.00;99034.78;6208627;23;20035;-62
2022/05/16 08:31:01;;;;;;;1.38;0.40;;;;;;;13.23;100.00;99010.16;6239155;23;20001;-69
2022/05/16 08:33:45;;;;;;;0.40;0.32;;;;;;;13.39;100.00;99015.69;6219447;23;20032;-63
2022/05/16 08:43:01;;;;;;;3.08;1.27;;;;;;;13.08;100.00;99028.56;6209553;23;20035;-62
2022/05/16 08:46:04;;;;;;;2.58;1.30;;;;;;;12.83;100.00;99014.50;6220066;23;20162;-64
2022/05/16 08:49:01;;;;;;;2.50;0.70;;;;;;;12.55;100.00;99013.91;6188490;23;20151;-61
2022/05/16 08:51:52;;;;;;;1.13;0.60;;;;;;;12.46;100.00;99016.94;6210128;23;20108;-63
2022/05/16 08:54:49;;;;;;;2.65;0.70;;;;;;;12.33;100.00;99002.38;6208278;23;20074;-68
2022/05/16 08:57:44;;;;;;;1.88;0.50;;;;;;;12.27;100.00;99019.41;6221108;23;20039;-63
2022/05/16 09:00:47;;;;;;;0.70;0.40;;;;;;;12.21;100.00;99011.69;6221671;23;20406;-61
2022/05/16 09:03:39;;;;;;;0.68;0.40;;;;;;;12.53;100.00;99007.75;6219695;23;20278;-62
2022/05/16 09:06:27;;;;;;;1.63;0.50;;;;;;;12.72;100.00;99009.63;6219122;23;20031;-67
2022/05/16 09:09:16;;;;;;;2.42;0.80;;;;;;;13.01;100.00;99005.78;6209346;23;20071;-61
2022/05/16 09:12:13;;;;;;;5.45;0.70;;;;;;;13.41;100.00;99009.34;6218826;23;20506;-62
2022/05/16 09:15:21;;;;;;;2.55;0.60;;;;;;;13.73;100.00;98995.47;6207188;23;20077;-71
2022/05/16 09:18:24;;;;;;;5.82;0.98;;;;;;;14.38;100.00;99010.28;6208987;23;20036;-77
2022/05/16 09:21:42;;;;;;;2.17;0.50;;;;;;;14.44;100.00;99000.16;6209254;23;20031;-64
2022/05/16 09:24:36;;;;;;;2.50;0.77;;;;;;;14.46;100.00;98997.44;6189453;23;20031;-63
2022/05/16 09:30:33;;;;;;;6.60;0.90;;;;;;;14.74;100.00;98996.03;6211134;23;20067;-61
2022/05/16 09:33:24;;;;;;;2.80;0.98;;;;;;;14.85;100.00;98995.50;6218511;23;20078;-63
2022/05/16 09:36:12;;;;;;;3.47;1.00;;;;;;;14.89;100.00;98989.94;6209671;23;20362;-63
2022/05/16 09:38:56;;;;;;;1.42;0.98;;;;;;;14.78;100.00;98994.06;6220932;23;20385;-61
2022/05/16 09:41:56;;;;;;;5.68;1.52;;;;;;;14.53;100.00;99010.44;6218380;23;20063;-73
2022/05/16 09:44:57;;;;;;;4.65;0.80;;;;;;;14.36;100.00;98985.50;6210695;23;20043;-63
2022/05/16 09:47:45;;;;;;;5.22;0.80;;;;;;;14.14;100.00;98982.94;6219263;23;20533;-62
2022/05/16 09:50:32;;;;;;;3.45;0.60;;;;;;;14.22;100.00;98988.81;6209320;23;20549;-62
2022/05/16 09:53:17;;;;;;;2.47;0.80;;;;;;;14.15;100.00;98992.66;6219805;23;20023;-63
2022/05/16 09:56:09;;;;;;;;;;;;;;;14.28;100.00;98993.84;6220764;23;20158;-62
2022/05/16 09:59:00;;;;;;;2.67;0.50;;;;;;;14.40;95.68;98998.59;6212519;23;19922;-64
2022/05/16 10:01:51;;;;;;;2.03;0.60;;;;;;;14.71;94.21;99009.53;6210243;23;20120;-64
2022/05/16 10:04:43;;;;;;;1.55;0.47;;;;;;;14.98;91.31;99001.94;6218996;23;20055;-63
2022/05/16 10:07:44;;;;;;;1.13;0.40;;;;;;;15.29;90.54;99011.03;6216779;23;20043;-64
2022/05/16 10:10:36;;;;;;;1.25;0.40;;;;;;;15.43;86.42;99005.03;6209170;23;20030;-68
2022/05/16 10:13:21;;;;;;;1.73;0.80;;;;;;;16.42;83.56;98995.13;6188184;23;20109;-64
2022/05/16 10:16:09;;;;;;;2.13;0.73;;;;;;;16.19;87.71;98992.84;6209101;23;20035;-64
2022/05/16 10:19:01;;;;;;;3.47;0.98;;;;;;;15.63;92.62;98992.31;6211238;23;20069;-63
2022/05/16 10:21:55;;;;;;;4.22;0.98;;;;;;;15.36;99.50;98995.59;6220276;23;20103;-62
2022/05/16 10:24:52;;;;;;;1.67;0.45;;;;;;;15.22;100.00;99006.94;6219096;23;20366;-64
2022/05/16 10:27:38;;;;;;;4.00;1.00;;;;;;;15.04;99.96;99005.22;6209008;23;20027;-71
2022/05/16 10:30:29;;;;;;;1.52;0.50;;;;;;;14.63;100.00;98985.00;6220586;23;20308;-64
2022/05/16 10:33:26;;;;;;;2.45;0.60;;;;;;;14.05;100.00;98993.16;6209237;23;20028;-64
2022/05/16 10:36:22;;;;;;;9.27;0.65;;;;;;;13.82;100.00;98980.88;6218774;23;20409;-67
2022/05/16 10:39:13;;;;;;;3.20;0.40;;;;;;;13.55;100.00;98995.44;6210090;23;20032;-65
2022/05/16 10:42:24;;;;;;;1.00;0.30;;;;;;;13.34;100.00;98994.56;6220224;23;20042;-63
2022/05/16 10:45:16;;;;;;;2.63;0.60;;;;;;;13.00;100.00;98988.97;6218493;23;20028;-65
2022/05/16 10:48:16;;;;;;;3.83;0.38;;;;;;;13.19;100.00;99019.22;6207744;23;20028;-63
2022/05/16 10:51:14;;;;;;;3.83;1.10;;;;;;;13.17;100.00;99010.41;6208229;23;20032;-64
2022/05/16 10:54:01;;;;;;;3.28;2.08;;;;;;;13.01;100.00;99013.75;6218743;23;20093;-63
2022/05/16 10:57:07;;;;;;;4.05;1.73;;;;;;;13.18;100.00;99028.09;6217226;23;20066;-65
2022/05/16 11:00:08;;;;;;;;;;;;;;;13.23;100.00;99017.28;6208273;23;20076;-63
2022/05/16 11:03:18;;;;;;;1.65;0.70;;;;;;;13.27;100.00;99021.53;6209226;23;19922;-69
2022/05/16 11:06:23;;;;;;;2.55;0.70;;;;;;;13.50;100.00;99006.28;6218442;23;20150;-70
2022/05/16 11:09:10;;;;;;;2.80;1.10;;;;;;;13.75;100.00;99003.41;6220636;23;20237;-63
2022/05/16 11:12:02;;;;;;;1.85;0.65;;;;;;;13.92;100.00;99000.84;6219357;23;20105;-63
2022/05/16 11:14:59;;;;;;;1.95;0.82;;;;;;;13.98;100.00;98978.38;6217154;23;20411;-63
2022/05/16 11:17:51;;;;;;;5.15;0.65;;;;;;;14.15;100.00;98991.81;6220167;23;20116;-64
2022/05/16 11:20:42;;;;;;;2.08;0.88;;;;;;;14.52;100.00;99002.50;6219788;23;20473;-64
2022/05/16 11:23:45;;;;;;;1.80;0.80;;;;;;;14.79;100.00;98994.00;6215181;23;20039;-62
2022/05/16 11:26:47;;;;;;;4.82;1.80;;;;;;;15.09;100.00;98971.13;6215208;23;20046;-65
2022/05/16 11:29:38;;;;;;;3.47;0.60;;;;;;;15.08;100.00;98973.88;6210334;23;20528;-62
2022/05/16 11:32:35;;;;;;;1.98;0.60;;;;;;;15.19;100.00;98991.06;6219395;23;20027;-62
2022/05/16 11:35:35;;;;;;;1.30;0.93;;;;;;;15.79;100.00;98976.38;6219432;23;20107;-66
2022/05/16 11:38:37;;;;;;;5.03;0.60;;;;;;;16.68;100.00;98981.16;6214717;23;20031;-68
2022/05/16 11:41:43;;;;;;;2.58;0.70;;;;;;;16.41;96.39;98974.69;6217426;23;20031;-68
2022/05/16 11:44:52;;;;;;;1.23;0.50;;;;;;;16.12;97.05;98958.47;6216587;23;20032;-64
2022/05/16 11:48:25;;;;;;;2.65;0.40;;;;;;;16.19;88.03;98967.91;6165040;23;20489;-63
2022/05/16 11:51:25;;;;;;;0.65;0.40;;;;;;;16.28;87.34;98970.94;6188608;23;20063;-63
2022/05/16 11:54:14;;;;;;;1.48;0.80;;;;;;;16.01;87.26;98966.22;6206414;23;20063;-70
2022/05/16 12:03:19;;;;;;;0.95;0.30;;;;;;;14.92;85.65;98980.91;6209470;23;20165;-61
2022/05/16 12:06:35;;;;;;;0.93;0.20;;;;;;;14.89;88.85;98979.28;6193662;23;20032;-65
2022/05/16 12:09:24;;;;;;;0.98;0.55;;;;;;;14.91;87.89;98987.22;6206229;23;20023;-63
2022/05/16 12:12:32;;;;;;;1.75;0.40;;;;;;;15.19;87.68;98972.38;6206640;23;20542;-66
2022/05/16 12:15:16;;;;;;;2.65;0.30;;;;;;;15.30;84.79;98978.03;6205790;23;20102;-65
2022/05/16 12:18:30;;;;;;;0.82;0.30;;;;;;;15.35;82.30;98965.31;6217081;23;20031;-61
2022/05/16 12:21:38;;;;;;;2.78;0.52;;;;;;;15.44;83.31;98972.88;6218243;23;20055;-62
2022/05/16 12:24:24;;;;;;;3.03;0.60;;;;;;;15.55;82.89;98973.16;6209447;23;20043;-62
2022/05/16 12:27:29;;;;;;;3.15;0.52;;;;;;;15.47;88.26;98970.03;6219496;23;20075;-63
2022/05/16 12:30:37;;;;;;;0.88;0.45;;;;;;;15.52;92.31;98980.50;6210357;23;20071;-64
2022/05/16 12:33:43;;;;;;;3.22;0.50;;;;;;;15.40;91.52;98982.00;6206086;23;20110;-63
2022/05/16 12:36:27;;;;;;;2.53;0.50;;;;;;;15.14;91.74;98982.44;6217559;23;20073;-65
2022/05/16 12:39:34;;;;;;;2.05;0.47;;;;;;;15.27;95.81;98985.34;6217277;23;20039;-65
2022/05/16 12:42:18;;;;;;;3.20;0.80;;;;;;;14.82;100.00;98976.97;6186725;23;20071;-65
2022/05/16 12:45:32;;;;;;;3.20;0.70;;;;;;;14.68;100.00;98977.63;6210049;23;20023;-63
2022/05/16 12:48:41;;;;;;;4.38;0.65;;;;;;;14.75;100.00;98973.75;6211039;23;20047;-64
2022/05/16 12:51:59;;;;;;;1.77;0.60;;;;;;;14.91;100.00;98982.72;6209930;23;20031;-63
2022/05/16 12:54:56;;;;;;;2.53;0.82;;;;;;;14.98;100.00;98978.81;6209838;23;20493;-62
2022/05/16 12:58:01;;;;;;;2.38;0.80;;;;;;;15.01;100.00;98969.78;6221184;23;20488;-63
2022/05/16 13:00:55;;;;;;;2.78;0.70;;;;;;;15.26;96.69;98963.09;6220024;23;20087;-63
2022/05/16 13:03:59;;;;;;;0.95;0.50;;;;;;;16.01;94.42;98955.53;6220485;23;20347;-70
2022/05/16 13:06:54;;;;;;;3.13;0.60;;;;;;;16.30;86.39;98952.13;6221031;23;20051;-63
2022/05/16 13:09:47;;;;;;;;;;;;;;;16.70;84.53;98947.09;6221450;23;20023;-63
2022/05/16 13:12:41;;;;;;;2.47;0.55;;;;;;;16.70;69.76;98932.88;6219866;23;20297;-63
2022/05/16 13:15:42;;;;;;;1.30;0.40;;;;;;;16.88;68.90;98939.81;6219301;23;20086;-65
2022/05/16 13:18:31;;;;;;;0.93;0.35;;;;;;;16.97;62.64;98933.97;6220932;23;20038;-64
2022/05/16 13:21:16;;;;;;;2.00;0.30;;;;;;;17.17;63.04;98936.31;6198924;23;20075;-62
2022/05/16 13:24:00;;;;;;;0.40;0.30;;;;;;;17.13;58.44;98940.97;6209746;23;20035;-64
2022/05/16 13:29:54;;;;;;;2.55;0.60;;;;;;;16.59;61.86;98938.84;6210742;23;20026;-63
2022/05/16 13:32:39;;;;;;;3.50;0.50;;;;;;;16.75;62.84;98941.50;6217081;23;20147;-66
2022/05/16 13:35:29;;;;;;;1.42;0.30;;;;;;;17.08;61.78;98939.50;6219383;23;20556;-63
2022/05/16 13:38:14;;;;;;;6.50;0.55;;;;;;;16.94;62.15;98918.91;6210271;23;20047;-63
2022/05/16 13:40:58;;;;;;;1.42;0.40;;;;;;;16.63;64.65;98956.47;6219277;23;20035;-63
2022/05/16 13:43:42;;;;;;;6.63;0.85;;;;;;;16.44;68.66;98970.97;6220695;23;20308;-65
2022/05/16 13:46:29;;;;;;;1.70;0.60;;;;;;;16.29;69.86;98950.38;6218715;23;20199;-68
2022/05/16 13:49:15;;;;;;;3.50;0.50;;;;;;;16.09;70.82;98964.00;6188543;23;20100;-63
2022/05/16 13:52:01;;;;;;;3.05;0.60;;;;;;;15.89;72.40;98970.44;6218647;23;20516;-62